Time;durP1;ratioP1;P1;durP2;ratioP2;P2;SDS_P1;SDS_P2;PMS_P1;PMS_P2;Temp;Humidity;BMP_temperature;BMP_pressure;BME280_temperature;BME280_humidity;BME280_pressure;Samples;Min_cycle;Max_cycle;Signal;HPM_P1;HPM_P2
2023/08/18 00:00:36;;;;;;;19.83;11.75;;;21.90;84.00;;;;;;4902420;29;20111;-87
2023/08/18 00:03:03;;;;;;;23.45;11.50;;;21.90;83.60;;;;;;4925972;29;20059;-87
2023/08/18 00:05:29;;;;;;;29.02;11.88;;;21.90;83.60;;;;;;4935453;29;20027;-87
2023/08/18 00:07:55;;;;;;;30.83;12.20;;;21.90;83.80;;;;;;4931109;29;20081;-87
2023/08/18 00:10:21;;;;;;;21.33;11.35;;;21.90;84.20;;;;;;4905741;29;20104;-90
2023/08/18 00:12:46;;;;;;;23.05;11.88;;;21.90;84.40;;;;;;4912006;29;20025;-90
2023/08/18 00:15:13;;;;;;;20.93;11.57;;;21.80;84.80;;;;;;4901345;29;20053;-88
2023/08/18 00:17:41;;;;;;;19.08;11.95;;;21.80;85.10;;;;;;4912232;29;20423;-88
2023/08/18 00:20:09;;;;;;;20.80;12.18;;;21.80;85.20;;;;;;4919890;29;20114;-88
2023/08/18 00:22:35;;;;;;;29.10;12.35;;;21.80;85.40;;;;;;4925242;29;20032;-87
2023/08/18 00:25:01;;;;;;;25.85;12.38;;;21.80;85.40;;;;;;4914638;29;20096;-89
2023/08/18 00:27:27;;;;;;;22.98;13.70;;;21.80;85.40;;;;;;4919491;29;20013;-88
2023/08/18 00:29:52;;;;;;;26.10;14.25;;;21.80;85.60;;;;;;4920598;29;20158;-89
2023/08/18 00:32:18;;;;;;;26.40;13.55;;;21.80;85.20;;;;;;4927949;29;20008;-88
2023/08/18 00:34:44;;;;;;;29.90;13.35;;;21.80;85.40;;;;;;4916110;29;20103;-91
2023/08/18 00:37:13;;;;;;;24.63;12.55;;;21.80;85.60;;;;;;4907981;29;20024;-91
2023/08/18 00:39:38;;;;;;;21.38;12.25;;;21.80;85.60;;;;;;4912083;29;20119;-90
2023/08/18 00:42:04;;;;;;;26.02;13.25;;;21.70;85.80;;;;;;4919567;29;20024;-87
2023/08/18 00:44:30;;;;;;;21.58;13.52;;;21.70;86.00;;;;;;4926406;29;20044;-90
2023/08/18 00:46:56;;;;;;;33.55;13.65;;;21.70;86.20;;;;;;4911045;29;20036;-91
2023/08/18 00:49:22;;;;;;;55.17;17.33;;;21.70;86.50;;;;;;4905008;29;20080;-90
2023/08/18 00:51:48;;;;;;;52.45;18.50;;;21.70;86.70;;;;;;4905038;29;20032;-91
2023/08/18 00:54:15;;;;;;;35.65;13.95;;;21.60;86.80;;;;;;4912674;29;20017;-89
2023/08/18 00:56:42;;;;;;;60.03;19.25;;;21.60;86.60;;;;;;4915098;29;20526;-91
2023/08/18 00:59:09;;;;;;;33.72;14.18;;;21.60;87.20;;;;;;4911073;29;20039;-91
2023/08/18 01:01:35;;;;;;;41.43;13.50;;;21.60;87.00;;;;;;4913229;29;20020;-91
2023/08/18 01:04:01;;;;;;;31.73;14.00;;;21.60;87.10;;;;;;4918239;29;20301;-91
2023/08/18 01:06:26;;;;;;;31.10;13.75;;;21.60;87.10;;;;;;4930843;29;20025;-90
2023/08/18 01:08:53;;;;;;;30.20;13.52;;;21.60;87.20;;;;;;4910714;29;20033;-91
2023/08/18 01:11:31;;;;;;;32.28;14.10;;;21.60;87.20;;;;;;4905164;29;20423;-90
2023/08/18 01:14:21;;;;;;;23.63;12.65;;;21.60;86.90;;;;;;4907808;29;20496;-87
2023/08/18 01:16:59;;;;;;;22.67;13.15;;;21.70;86.80;;;;;;4898027;29;20039;-89
2023/08/18 01:19:26;;;;;;;23.35;13.35;;;21.70;86.60;;;;;;4902548;29;20056;-88
2023/08/18 01:21:55;;;;;;;25.63;12.55;;;21.70;86.50;;;;;;4902315;29;20036;-87
2023/08/18 01:24:26;;;;;;;18.63;12.48;;;21.80;86.50;;;;;;4903354;29;20127;-86
2023/08/18 01:26:52;;;;;;;19.15;12.07;;;21.80;86.10;;;;;;4900477;29;20494;-87
2023/08/18 01:29:22;;;;;;;26.58;13.90;;;21.80;85.90;;;;;;4899637;29;20064;-87
2023/08/18 01:31:53;;;;;;;20.33;12.63;;;21.90;85.90;;;;;;4897645;29;20031;-86
2023/08/18 01:34:23;;;;;;;26.15;12.75;;;21.90;86.10;;;;;;4888586;29;20039;-87
2023/08/18 01:36:51;;;;;;;21.98;13.02;;;21.90;86.00;;;;;;4897970;29;20031;-87
2023/08/18 01:39:19;;;;;;;25.67;12.75;;;21.90;85.80;;;;;;4896429;29;20024;-87
2023/08/18 01:41:46;;;;;;;24.92;12.95;;;21.90;85.40;;;;;;4913418;29;20024;-86
2023/08/18 01:44:16;;;;;;;20.15;11.93;;;21.90;85.20;;;;;;4905939;29;20028;-86
2023/08/18 01:46:42;;;;;;;21.17;12.55;;;21.90;85.20;;;;;;4910639;29;20028;-87
2023/08/18 01:49:08;;;;;;;21.73;13.55;;;21.90;85.70;;;;;;4900264;29;20027;-86
2023/08/18 01:51:34;;;;;;;20.02;12.10;;;21.90;85.60;;;;;;4906539;29;20048;-86
2023/08/18 01:54:00;;;;;;;19.95;12.48;;;21.90;85.80;;;;;;4924663;29;20032;-84
2023/08/18 01:56:26;;;;;;;22.30;11.75;;;21.80;85.70;;;;;;4913445;29;20068;-85
2023/08/18 01:58:52;;;;;;;24.45;12.40;;;21.80;86.00;;;;;;4906867;29;20028;-86
2023/08/18 02:01:17;;;;;;;18.20;10.90;;;21.70;86.60;;;;;;4904138;29;20174;-88
2023/08/18 02:03:43;;;;;;;17.73;11.70;;;21.70;86.30;;;;;;4902768;29;20032;-91
2023/08/18 02:06:09;;;;;;;16.15;11.45;;;21.60;85.90;;;;;;4910853;29;20025;-87
2023/08/18 02:08:35;;;;;;;23.75;12.88;;;21.60;85.70;;;;;;4920088;29;20060;-88
2023/08/18 02:11:04;;;;;;;28.77;13.07;;;21.50;85.50;;;;;;4931492;29;20025;-89
2023/08/18 02:13:31;;;;;;;23.85;12.15;;;21.50;85.70;;;;;;4906608;29;20490;-91
2023/08/18 02:15:57;;;;;;;25.45;11.10;;;21.50;85.80;;;;;;4907915;29;20084;-90
2023/08/18 02:18:23;;;;;;;20.75;12.23;;;21.50;86.00;;;;;;4919788;29;20544;-90
2023/08/18 02:21:00;;;;;;;19.80;11.82;;;21.50;86.20;;;;;;4905908;29;20036;-89
2023/08/18 02:23:26;;;;;;;19.65;11.70;;;21.50;86.80;;;;;;4911349;29;20352;-89
2023/08/18 02:26:03;;;;;;;16.75;10.88;;;21.40;86.80;;;;;;4914942;29;20021;-88
2023/08/18 02:28:29;;;;;;;23.05;13.07;;;21.40;86.80;;;;;;4912492;29;20025;-90
2023/08/18 02:31:06;;;;;;;23.42;12.30;;;21.50;86.60;;;;;;4899849;29;20033;-89
2023/08/18 02:33:34;;;;;;;16.52;11.15;;;21.40;86.10;;;;;;4900697;29;20029;-89
2023/08/18 02:36:00;;;;;;;19.58;11.27;;;21.40;85.80;;;;;;4902578;29;20035;-90
2023/08/18 02:38:27;;;;;;;17.98;11.45;;;21.40;85.80;;;;;;4898960;29;20055;-89
2023/08/18 02:40:53;;;;;;;22.65;12.10;;;21.40;85.20;;;;;;4914846;29;20028;-90
2023/08/18 02:43:19;;;;;;;19.58;11.30;;;21.50;85.20;;;;;;4925630;29;20577;-88
2023/08/18 02:45:45;;;;;;;21.75;11.73;;;21.50;84.70;;;;;;4909685;29;20367;-89
2023/08/18 02:48:12;;;;;;;18.63;11.98;;;21.50;84.60;;;;;;4913991;29;20031;-90
2023/08/18 02:50:39;;;;;;;17.30;11.90;;;21.60;84.90;;;;;;4900805;29;20028;-89
2023/08/18 02:53:05;;;;;;;;;;;21.60;84.90;;;;;;4916424;29;20024;-88
2023/08/18 02:55:32;;;;;;;20.65;12.30;;;21.60;84.60;;;;;;4905446;29;19932;-86
2023/08/18 02:57:58;;;;;;;20.40;12.27;;;21.60;84.70;;;;;;4906803;29;20024;-88
2023/08/18 03:00:26;;;;;;;16.95;12.05;;;21.70;84.70;;;;;;4902562;29;20021;-90
2023/08/18 03:02:52;;;;;;;23.80;13.20;;;21.70;84.80;;;;;;4917935;29;20032;-88
2023/08/18 03:05:18;;;;;;;20.10;12.18;;;21.70;84.60;;;;;;4920821;29;20057;-88
2023/08/18 03:07:44;;;;;;;21.20;13.10;;;21.80;84.40;;;;;;4924849;29;20032;-89
2023/08/18 03:10:10;;;;;;;15.70;11.45;;;21.80;83.80;;;;;;4917498;29;20032;-88
2023/08/18 03:12:35;;;;;;;12.48;11.18;;;21.90;83.60;;;;;;4900442;29;20494;-88
2023/08/18 03:15:01;;;;;;;20.92;12.13;;;22.00;84.00;;;;;;4892307;29;20131;-87
2023/08/18 03:17:27;;;;;;;16.80;11.60;;;22.00;82.90;;;;;;4887561;29;20021;-89
2023/08/18 03:19:53;;;;;;;19.27;11.40;;;22.10;83.20;;;;;;4916922;29;20076;-87
2023/08/18 03:22:19;;;;;;;18.63;11.10;;;22.20;82.90;;;;;;4916121;29;20028;-88
2023/08/18 03:24:44;;;;;;;15.07;10.48;;;22.30;82.40;;;;;;4919804;29;20039;-89
2023/08/18 03:27:10;;;;;;;14.43;10.95;;;22.40;81.40;;;;;;4905642;29;20032;-89
2023/08/18 03:29:36;;;;;;;19.00;11.75;;;22.40;81.10;;;;;;4897141;29;20021;-89
2023/08/18 03:32:02;;;;;;;18.13;11.32;;;22.50;80.90;;;;;;4898652;29;20474;-88
2023/08/18 03:34:28;;;;;;;16.73;9.38;;;22.50;80.60;;;;;;4912085;29;20027;-90
2023/08/18 03:36:54;;;;;;;15.40;10.40;;;22.70;80.60;;;;;;4910414;29;20462;-89
2023/08/18 03:39:20;;;;;;;16.70;10.57;;;22.70;80.00;;;;;;4903162;29;20037;-87
2023/08/18 03:41:45;;;;;;;17.20;10.48;;;22.80;80.00;;;;;;4914666;29;20032;-87
2023/08/18 03:44:12;;;;;;;15.10;10.20;;;22.80;79.50;;;;;;4921258;29;20076;-90
2023/08/18 03:46:37;;;;;;;16.55;9.95;;;22.90;79.30;;;;;;4908175;29;20031;-89
2023/08/18 03:49:05;;;;;;;14.82;9.55;;;22.90;79.10;;;;;;4909989;29;20009;-89
2023/08/18 03:51:32;;;;;;;13.93;10.85;;;23.00;79.20;;;;;;4920205;29;20017;-87
2023/08/18 03:53:58;;;;;;;13.18;9.13;;;23.10;78.70;;;;;;4923459;29;20037;-88
2023/08/18 03:56:24;;;;;;;16.73;11.18;;;23.20;78.90;;;;;;4905057;29;20147;-91
2023/08/18 03:58:51;;;;;;;16.63;10.73;;;23.30;78.40;;;;;;4915788;29;20025;-90
2023/08/18 04:01:17;;;;;;;13.15;9.63;;;23.40;77.90;;;;;;4912030;29;20032;-89
2023/08/18 04:03:43;;;;;;;20.52;11.02;;;23.40;77.40;;;;;;4902632;29;20040;-90
2023/08/18 04:06:12;;;;;;;18.02;10.77;;;23.50;78.50;;;;;;4903852;29;20089;-89
2023/08/18 04:08:43;;;;;;;15.38;10.55;;;23.50;77.90;;;;;;4900707;29;20020;-90
2023/08/18 04:11:12;;;;;;;13.40;8.77;;;23.60;76.40;;;;;;4911718;29;20449;-90
2023/08/18 04:13:39;;;;;;;14.50;9.88;;;23.70;77.20;;;;;;4903511;29;20025;-90
2023/08/18 04:16:04;;;;;;;16.30;10.55;;;23.70;76.00;;;;;;4906822;29;20035;-88
2023/08/18 04:18:30;;;;;;;12.02;9.90;;;23.80;75.20;;;;;;4901922;29;20597;-88
2023/08/18 04:20:56;;;;;;;15.32;10.30;;;23.80;75.00;;;;;;4905251;29;20032;-89
2023/08/18 04:23:22;;;;;;;20.55;10.77;;;23.90;74.70;;;;;;4893007;29;20041;-91
2023/08/18 04:25:48;;;;;;;14.93;10.45;;;23.90;74.50;;;;;;4917431;29;20028;-91
2023/08/18 04:28:14;;;;;;;16.65;10.52;;;24.00;74.30;;;;;;4903688;29;20047;-90
2023/08/18 04:30:40;;;;;;;15.25;10.52;;;24.10;73.90;;;;;;4918849;29;20036;-85
2023/08/18 04:33:06;;;;;;;13.63;10.63;;;24.20;73.70;;;;;;4901790;29;20085;-89
2023/08/18 04:35:32;;;;;;;17.60;10.38;;;24.30;73.70;;;;;;4901462;29;20387;-87
2023/08/18 04:37:58;;;;;;;19.08;10.85;;;24.40;73.80;;;;;;4901491;29;20036;-89
2023/08/18 04:40:23;;;;;;;19.20;11.93;;;24.50;74.00;;;;;;4902612;29;20115;-90
2023/08/18 04:42:49;;;;;;;16.33;11.52;;;24.60;73.70;;;;;;4901513;29;20060;-87
2023/08/18 04:45:15;;;;;;;20.98;12.70;;;24.90;73.30;;;;;;4911325;29;20065;-87
2023/08/18 04:47:41;;;;;;;24.00;11.15;;;25.40;72.50;;;;;;4907561;29;20497;-89
2023/08/18 04:50:07;;;;;;;20.23;11.88;;;26.10;71.60;;;;;;4914553;29;20112;-87
2023/08/18 04:52:33;;;;;;;16.80;11.37;;;26.30;70.20;;;;;;4910495;29;20028;-90
2023/08/18 04:54:59;;;;;;;17.52;12.25;;;26.50;69.60;;;;;;4905087;29;20028;-90
2023/08/18 04:57:25;;;;;;;25.67;12.38;;;26.70;67.20;;;;;;4905044;29;20043;-88
2023/08/18 04:59:50;;;;;;;24.70;15.45;;;26.80;68.80;;;;;;4910858;29;20071;-90
2023/08/18 05:02:16;;;;;;;23.75;13.00;;;26.80;66.80;;;;;;4906558;29;20055;-90
2023/08/18 05:04:42;;;;;;;13.77;11.07;;;26.90;65.80;;;;;;4902627;29;20112;-91
2023/08/18 05:07:08;;;;;;;11.57;10.48;;;26.80;65.70;;;;;;4903436;29;20027;-90
2023/08/18 05:09:34;;;;;;;14.98;11.07;;;26.70;65.80;;;;;;4894046;29;20033;-91
2023/08/18 05:12:02;;;;;;;18.48;12.27;;;26.80;66.80;;;;;;4885067;29;20052;-91
2023/08/18 05:14:27;;;;;;;19.77;11.32;;;27.30;65.00;;;;;;4882229;29;20029;-89
2023/08/18 05:16:56;;;;;;;14.70;11.48;;;27.90;63.30;;;;;;4904767;29;20036;-92
2023/08/18 05:19:22;;;;;;;16.17;11.02;;;28.20;62.30;;;;;;4902418;29;20632;-89
2023/08/18 05:21:48;;;;;;;21.15;14.05;;;28.10;62.30;;;;;;4910348;29;20055;-90
2023/08/18 05:24:14;;;;;;;14.05;11.50;;;27.80;62.80;;;;;;4918567;29;20048;-88
2023/08/18 05:26:40;;;;;;;25.25;12.80;;;27.40;63.20;;;;;;4911880;29;20097;-89
2023/08/18 05:29:06;;;;;;;14.82;11.38;;;27.10;64.60;;;;;;4909430;29;20032;-89
2023/08/18 05:31:32;;;;;;;19.83;11.35;;;26.90;64.90;;;;;;4914609;29;20048;-88
2023/08/18 05:33:58;;;;;;;18.90;11.38;;;26.70;65.00;;;;;;4907931;29;20036;-89
2023/08/18 05:36:24;;;;;;;19.65;10.27;;;26.50;65.90;;;;;;4904749;29;20035;-86
2023/08/18 05:38:50;;;;;;;22.67;11.25;;;26.40;70.30;;;;;;4910601;29;20105;-88
2023/08/18 05:41:16;;;;;;;16.38;11.57;;;26.30;70.90;;;;;;4909481;29;20028;-90
2023/08/18 05:43:42;;;;;;;13.73;11.20;;;26.20;70.10;;;;;;4902178;29;20120;-90
2023/08/18 05:46:08;;;;;;;15.73;10.70;;;26.20;70.20;;;;;;4905375;29;20080;-90
2023/08/18 05:48:34;;;;;;;25.73;12.88;;;26.20;70.50;;;;;;4921923;29;20352;-87
2023/08/18 05:51:01;;;;;;;19.35;12.02;;;26.10;70.30;;;;;;4919538;29;20044;-89
2023/08/18 05:53:26;;;;;;;21.17;12.57;;;26.10;68.80;;;;;;4909585;29;20040;-90
2023/08/18 05:55:52;;;;;;;17.92;11.80;;;26.10;68.90;;;;;;4910509;29;20508;-91
2023/08/18 05:58:19;;;;;;;16.50;11.68;;;26.00;71.00;;;;;;4904858;29;20100;-88
2023/08/18 06:01:17;;;;;;;20.73;12.55;;;26.10;71.00;;;;;;4908589;29;20026;-95
2023/08/18 06:03:43;;;;;;;19.70;11.00;;;26.30;69.10;;;;;;4918855;29;20041;-92
2023/08/18 06:06:11;;;;;;;17.65;12.23;;;26.40;70.80;;;;;;4911420;29;20032;-94
2023/08/18 06:08:38;;;;;;;22.30;11.45;;;26.50;69.70;;;;;;4882095;29;20191;-93
2023/08/18 06:11:04;;;;;;;19.27;10.90;;;26.70;69.70;;;;;;4892883;29;20037;-91
2023/08/18 06:13:31;;;;;;;22.70;12.30;;;26.80;69.40;;;;;;4889979;29;20049;-96
2023/08/18 06:15:58;;;;;;;23.80;14.05;;;27.00;68.00;;;;;;4892137;29;20040;-95
2023/08/18 06:18:24;;;;;;;15.18;12.13;;;27.00;66.60;;;;;;4871781;29;20084;-93
2023/08/18 06:20:53;;;;;;;18.00;12.63;;;27.00;66.40;;;;;;4886163;29;20541;-92
2023/08/18 06:23:19;;;;;;;20.23;12.30;;;27.10;66.10;;;;;;4889374;29;20040;-91
2023/08/18 06:25:45;;;;;;;27.08;14.32;;;27.20;66.00;;;;;;4866637;29;20029;-91
2023/08/18 06:28:11;;;;;;;21.95;13.05;;;27.40;66.00;;;;;;4883101;29;20201;-92
2023/08/18 06:30:37;;;;;;;24.10;12.05;;;27.80;65.10;;;;;;4886851;29;20029;-90
2023/08/18 06:33:03;;;;;;;17.27;11.93;;;28.20;64.30;;;;;;4892709;29;20141;-88
2023/08/18 06:35:29;;;;;;;23.13;13.90;;;28.90;63.60;;;;;;4882218;29;20515;-86
2023/08/18 06:37:55;;;;;;;22.00;12.93;;;29.60;62.20;;;;;;4879624;29;20029;-90
2023/08/18 06:40:20;;;;;;;25.15;11.88;;;30.40;61.10;;;;;;4878192;29;20029;-88
2023/08/18 06:42:46;;;;;;;25.55;11.82;;;30.90;59.70;;;;;;4881236;29;20048;-87
2023/08/18 06:45:12;;;;;;;19.90;12.52;;;31.40;57.90;;;;;;4880953;29;20045;-92
2023/08/18 06:47:38;;;;;;;18.37;12.20;;;32.00;55.90;;;;;;4867376;29;20171;-93
2023/08/18 06:50:05;;;;;;;21.57;11.70;;;32.10;54.50;;;;;;4882019;29;20117;-88
2023/08/18 06:52:33;;;;;;;28.42;12.38;;;32.10;54.90;;;;;;4895059;29;20782;-91
2023/08/18 06:54:59;;;;;;;21.92;13.00;;;32.40;54.30;;;;;;4898987;29;20029;-92
2023/08/18 06:57:25;;;;;;;23.40;12.77;;;33.10;53.20;;;;;;4905375;29;20094;-91
2023/08/18 06:59:51;;;;;;;;;;;35.00;52.10;;;;;;4899572;29;20144;-91
2023/08/18 07:02:17;;;;;;;18.95;12.18;;;;;;;;;;4899784;29;19947;-91
2023/08/18 07:04:43;;;;;;;33.03;13.65;;;35.50;53.00;;;;;;4916062;29;20039;-93
2023/08/18 07:07:09;;;;;;;23.10;12.68;;;38.40;46.50;;;;;;4915461;29;20033;-92
2023/08/18 07:09:35;;;;;;;22.52;11.52;;;39.60;44.70;;;;;;4905396;29;20031;-90
2023/08/18 07:12:01;;;;;;;19.38;13.48;;;40.70;42.90;;;;;;4908383;29;20088;-91
2023/08/18 07:14:27;;;;;;;18.98;12.02;;;41.50;41.60;;;;;;4909640;29;20055;-91
2023/08/18 07:16:52;;;;;;;23.77;11.35;;;42.30;40.50;;;;;;4920283;29;20083;-90
2023/08/18 07:19:18;;;;;;;15.40;9.85;;;42.60;39.50;;;;;;4918171;29;20060;-87
2023/08/18 07:21:44;;;;;;;23.45;10.93;;;42.60;39.50;;;;;;4909052;29;20089;-89
2023/08/18 07:24:10;;;;;;;18.50;10.82;;;42.30;39.00;;;;;;4916902;29;20092;-87
2023/08/18 07:26:36;;;;;;;17.65;10.18;;;40.80;39.60;;;;;;4914646;29;20172;-86
2023/08/18 07:29:04;;;;;;;18.38;9.88;;;39.70;41.30;;;;;;4915001;29;20032;-85
2023/08/18 07:31:30;;;;;;;14.65;9.43;;;38.70;42.40;;;;;;4909100;29;20039;-89
2023/08/18 07:33:57;;;;;;;15.10;9.85;;;38.40;42.40;;;;;;4914484;29;20059;-92
2023/08/18 07:36:23;;;;;;;17.88;9.50;;;38.80;41.90;;;;;;4901498;29;20482;-92
2023/08/18 07:38:49;;;;;;;16.77;11.13;;;39.20;41.90;;;;;;4900850;29;20039;-91
2023/08/18 07:41:14;;;;;;;12.95;9.15;;;40.20;40.90;;;;;;4916523;29;20036;-91
2023/08/18 07:43:41;;;;;;;22.13;12.35;;;40.70;40.00;;;;;;4914613;29;20500;-93
2023/08/18 07:46:06;;;;;;;;;;;41.40;39.60;;;;;;4909757;29;20394;-91
2023/08/18 07:48:32;;;;;;;20.90;11.85;;;42.20;39.80;;;;;;4922948;29;19911;-90
2023/08/18 07:50:58;;;;;;;;;;;42.40;39.20;;;;;;4895462;29;20029;-93
2023/08/18 07:53:26;;;;;;;24.58;11.65;;;42.90;39.30;;;;;;4892652;29;19913;-92
2023/08/18 07:55:53;;;;;;;19.80;11.90;;;42.80;37.60;;;;;;4909883;29;20052;-89
2023/08/18 07:58:19;;;;;;;21.58;12.70;;;43.30;37.60;;;;;;4913388;29;20347;-87
2023/08/18 08:00:45;;;;;;;19.23;12.98;;;43.50;36.90;;;;;;4903251;29;20104;-89
2023/08/18 08:03:11;;;;;;;23.65;14.73;;;43.10;37.20;;;;;;4906190;29;20407;-90
2023/08/18 08:05:38;;;;;;;;;;;42.20;37.40;;;;;;4904684;29;20020;-88
2023/08/18 08:08:04;;;;;;;17.80;11.48;;;41.80;39.00;;;;;;4912824;29;19954;-88
2023/08/18 08:10:30;;;;;;;18.55;11.95;;;42.00;38.20;;;;;;4903098;29;20477;-89
2023/08/18 08:12:55;;;;;;;;;;;42.80;37.80;;;;;;4902674;29;20107;-85
2023/08/18 08:15:21;;;;;;;18.75;11.35;;;42.80;37.70;;;;;;4902021;29;19923;-89
2023/08/18 08:17:47;;;;;;;;;;;42.80;37.20;;;;;;4909231;29;20081;-88
2023/08/18 08:20:16;;;;;;;13.75;10.18;;;43.30;37.80;;;;;;4908363;29;19919;-88
2023/08/18 08:22:47;;;;;;;14.20;9.27;;;43.50;36.50;;;;;;4902942;29;20024;-88
2023/08/18 08:25:13;;;;;;;11.93;9.93;;;43.70;36.30;;;;;;4908209;29;20072;-88
2023/08/18 08:27:40;;;;;;;13.18;8.55;;;43.20;36.60;;;;;;4926911;29;20024;-87
2023/08/18 08:30:08;;;;;;;21.05;8.98;;;42.70;37.00;;;;;;4921398;29;20032;-86
2023/08/18 08:32:34;;;;;;;5.03;3.88;;;43.40;37.10;;;;;;4910058;29;20025;-87
2023/08/18 08:34:59;;;;;;;8.32;5.28;;;44.10;36.20;;;;;;4907658;29;20043;-88
2023/08/18 08:37:25;;;;;;;;;;;43.90;36.00;;;;;;4906953;29;20012;-86
2023/08/18 08:39:51;;;;;;;15.60;6.43;;;42.70;36.80;;;;;;4893407;29;19951;-86
2023/08/18 08:42:17;;;;;;;12.30;5.90;;;41.30;38.00;;;;;;4898329;29;20028;-88
2023/08/18 08:44:43;;;;;;;11.93;6.43;;;39.90;38.80;;;;;;4908512;29;20041;-88
2023/08/18 08:47:10;;;;;;;9.93;6.13;;;38.50;40.40;;;;;;4910638;29;20039;-87
2023/08/18 08:49:39;;;;;;;9.68;6.45;;;37.60;41.70;;;;;;4909882;29;20043;-88
2023/08/18 08:52:10;;;;;;;8.48;7.00;;;37.20;42.30;;;;;;4896017;29;20076;-88
2023/08/18 08:54:47;;;;;;;11.95;6.97;;;36.80;42.90;;;;;;4919982;29;20025;-88
2023/08/18 08:57:14;;;;;;;9.55;6.90;;;37.10;42.80;;;;;;4909366;29;20028;-87
2023/08/18 08:59:40;;;;;;;9.38;6.97;;;37.50;41.90;;;;;;4903639;29;20032;-88
2023/08/18 09:02:07;;;;;;;15.77;7.23;;;36.70;42.70;;;;;;4909299;29;20471;-88
2023/08/18 09:04:32;;;;;;;15.35;7.50;;;36.00;43.60;;;;;;4913956;29;20364;-89
2023/08/18 09:06:58;;;;;;;13.47;7.37;;;35.50;44.60;;;;;;4920079;29;20000;-87
2023/08/18 09:09:24;;;;;;;11.02;7.30;;;35.20;44.80;;;;;;4914221;29;20111;-88
2023/08/18 09:11:50;;;;;;;7.63;6.57;;;34.70;45.50;;;;;;4896254;29;20192;-88
2023/08/18 09:14:17;;;;;;;9.35;6.78;;;34.10;46.40;;;;;;4903442;29;20374;-87
2023/08/18 09:16:44;;;;;;;8.50;6.43;;;33.20;47.40;;;;;;4901309;29;20020;-86
2023/08/18 09:19:14;;;;;;;8.95;6.93;;;;;;;;;;4903317;29;20055;-86
2023/08/18 09:21:41;;;;;;;12.00;7.53;;;;;;;;;;4900691;29;20024;-89
2023/08/18 09:24:07;;;;;;;15.48;8.27;;;32.50;48.40;;;;;;4901289;29;20046;-89
2023/08/18 09:26:34;;;;;;;12.95;9.30;;;31.50;51.10;;;;;;4902605;29;20032;-93
2023/08/18 09:28:59;;;;;;;17.08;8.90;;;31.10;51.80;;;;;;4900580;29;20064;-88
2023/08/18 09:31:25;;;;;;;12.40;8.88;;;30.90;52.90;;;;;;4902272;29;20044;-91
2023/08/18 09:33:52;;;;;;;13.75;8.15;;;30.60;52.90;;;;;;4909531;29;20048;-90
2023/08/18 09:36:18;;;;;;;15.13;7.80;;;30.40;53.50;;;;;;4903401;29;20036;-90
2023/08/18 09:38:44;;;;;;;12.75;8.77;;;30.20;53.80;;;;;;4906922;29;20040;-91
2023/08/18 09:41:12;;;;;;;12.95;9.10;;;30.20;53.90;;;;;;4907917;29;20032;-91
2023/08/18 09:43:39;;;;;;;19.80;17.35;;;30.30;53.70;;;;;;4902048;29;20120;-94
2023/08/18 09:46:06;;;;;;;11.13;8.63;;;30.50;53.50;;;;;;4904099;29;20039;-93
2023/08/18 09:48:35;;;;;;;;;;;30.50;53.60;;;;;;4897159;29;20039;-89
2023/08/18 09:51:05;;;;;;;11.32;9.23;;;30.30;53.00;;;;;;4913914;29;20419;-91
2023/08/18 09:53:32;;;;;;;9.95;8.13;;;30.20;54.50;;;;;;4895848;29;20052;-93
2023/08/18 09:56:07;;;;;;;16.42;11.73;;;30.10;55.30;;;;;;4905160;29;20178;-91
2023/08/18 09:58:54;;;;;;;16.15;12.43;;;30.00;55.50;;;;;;4901579;29;20032;-89
2023/08/18 10:01:20;;;;;;;22.48;9.40;;;;;;;;;;4911142;29;20118;-88
2023/08/18 10:03:46;;;;;;;14.57;10.18;;;29.90;55.40;;;;;;4914138;29;20048;-89
2023/08/18 10:06:13;;;;;;;13.65;9.70;;;29.60;57.00;;;;;;4924646;29;20092;-89
2023/08/18 10:08:40;;;;;;;14.05;9.38;;;29.50;57.60;;;;;;4886953;29;20021;-91
2023/08/18 10:11:07;;;;;;;17.50;13.15;;;29.50;57.60;;;;;;4901720;29;20076;-91
2023/08/18 10:13:34;;;;;;;18.70;10.40;;;29.50;57.70;;;;;;4911922;29;20032;-84
2023/08/18 10:16:06;;;;;;;11.55;9.18;;;29.50;57.60;;;;;;4916186;29;20063;-87
2023/08/18 10:18:32;;;;;;;15.40;9.48;;;29.30;57.90;;;;;;4907541;29;20107;-90
2023/08/18 10:20:59;;;;;;;16.10;9.20;;;29.10;58.60;;;;;;4914084;29;20029;-92
2023/08/18 10:23:29;;;;;;;16.48;10.23;;;;;;;;;;4927137;29;20028;-90
2023/08/18 10:25:55;;;;;;;12.35;10.18;;;;;;;;;;4903636;29;20105;-90
2023/08/18 10:28:23;;;;;;;14.23;9.20;;;;;;;;;;4909305;29;20024;-85
2023/08/18 10:30:56;;;;;;;11.48;10.00;;;;;;;;;;4901012;29;20630;-90
2023/08/18 10:33:31;;;;;;;11.93;9.77;;;;;;;;;;4905158;29;20032;-91
2023/08/18 10:35:58;;;;;;;14.43;9.88;;;;;;;;;;4907474;29;20442;-90
2023/08/18 10:38:28;;;;;;;16.30;10.65;;;;;;;;;;4893131;29;20029;-90
2023/08/18 10:40:54;;;;;;;15.35;11.18;;;29.00;59.60;;;;;;4903566;29;20028;-87
2023/08/18 10:43:20;;;;;;;27.65;13.68;;;26.50;73.30;;;;;;4902823;29;20047;-87
2023/08/18 10:45:59;;;;;;;19.40;13.43;;;26.00;75.70;;;;;;4900694;29;20021;-88
2023/08/18 10:48:35;;;;;;;17.27;14.23;;;;;;;;;;4903071;29;20023;-89
2023/08/18 10:51:01;;;;;;;22.58;15.02;;;25.80;78.00;;;;;;4894133;29;20025;-88
2023/08/18 10:53:40;;;;;;;21.33;16.23;;;25.40;83.10;;;;;;4903169;29;20138;-87
2023/08/18 10:56:06;;;;;;;23.83;16.42;;;25.20;84.90;;;;;;4909639;29;20024;-88
2023/08/18 10:58:34;;;;;;;28.58;16.60;;;25.10;86.70;;;;;;4913040;29;20029;-88
2023/08/18 11:01:00;;;;;;;25.42;17.38;;;25.10;88.10;;;;;;4899144;29;20120;-86
2023/08/18 11:03:26;;;;;;;28.70;16.95;;;25.00;89.40;;;;;;4898815;29;20077;-87
2023/08/18 11:05:52;;;;;;;26.73;18.48;;;24.80;90.10;;;;;;4899531;29;20100;-84
2023/08/18 11:08:19;;;;;;;24.20;17.73;;;24.80;90.60;;;;;;4899462;29;20057;-84
2023/08/18 11:10:45;;;;;;;33.63;18.58;;;24.80;91.10;;;;;;4896806;29;20032;-85
2023/08/18 11:13:32;;;;;;;21.80;18.88;;;24.80;91.50;;;;;;4897283;29;20396;-86
2023/08/18 11:15:58;;;;;;;23.50;18.08;;;24.80;91.80;;;;;;4898992;29;20060;-85
2023/08/18 11:18:24;;;;;;;25.55;19.35;;;24.90;91.90;;;;;;4896028;29;20028;-86
2023/08/18 11:20:51;;;;;;;21.05;17.95;;;24.90;91.90;;;;;;4900814;29;20054;-87
2023/08/18 11:23:18;;;;;;;23.60;18.58;;;25.00;92.10;;;;;;4903900;29;20028;-87
2023/08/18 11:25:45;;;;;;;23.92;19.60;;;25.10;92.00;;;;;;4900067;29;20029;-85
2023/08/18 11:28:15;;;;;;;;;;;25.20;92.90;;;;;;4899333;29;20024;-87
2023/08/18 11:30:41;;;;;;;23.52;19.45;;;25.40;91.90;;;;;;4900032;29;20002;-87
2023/08/18 11:33:07;;;;;;;21.15;17.67;;;25.60;91.50;;;;;;4901945;29;20029;-88
2023/08/18 11:35:33;;;;;;;22.50;18.38;;;25.80;91.40;;;;;;4904815;29;20055;-88
2023/08/18 11:37:59;;;;;;;25.98;19.98;;;26.00;90.90;;;;;;4908970;29;20025;-88
2023/08/18 11:40:25;;;;;;;22.35;19.63;;;26.10;90.60;;;;;;4911303;29;20029;-88
2023/08/18 11:42:53;;;;;;;24.00;18.83;;;26.30;90.80;;;;;;4906585;29;20032;-89
2023/08/18 11:45:23;;;;;;;25.92;20.48;;;26.50;90.30;;;;;;4901357;29;20040;-88
2023/08/18 11:48:00;;;;;;;25.10;22.60;;;26.80;89.60;;;;;;4902185;29;20076;-87
2023/08/18 11:50:33;;;;;;;26.13;20.08;;;26.90;89.00;;;;;;4912594;29;20039;-87
2023/08/18 11:53:00;;;;;;;24.33;21.67;;;27.00;88.30;;;;;;4909155;29;20036;-89
2023/08/18 11:55:44;;;;;;;28.95;22.10;;;27.00;88.50;;;;;;4909819;29;20025;-89
2023/08/18 11:58:14;;;;;;;29.08;18.73;;;27.00;88.40;;;;;;4904748;29;20061;-92
2023/08/18 12:00:42;;;;;;;25.35;19.63;;;27.10;87.50;;;;;;4904776;29;20033;-86
2023/08/18 12:03:28;;;;;;;20.00;16.92;;;27.20;87.90;;;;;;4906362;29;20550;-90
2023/08/18 12:05:56;;;;;;;20.23;16.70;;;27.30;86.10;;;;;;4905330;29;20040;-88
2023/08/18 12:08:22;;;;;;;20.75;15.68;;;27.40;85.70;;;;;;4901980;29;20020;-87
2023/08/18 12:10:50;;;;;;;16.92;13.15;;;27.30;83.50;;;;;;4900966;29;20024;-87
2023/08/18 12:13:16;;;;;;;19.55;13.45;;;27.30;81.70;;;;;;4902948;29;20020;-86
2023/08/18 12:15:42;;;;;;;20.08;13.48;;;27.40;81.10;;;;;;4902639;29;20393;-87
2023/08/18 12:18:10;;;;;;;21.30;14.00;;;27.50;80.50;;;;;;4904057;29;20028;-90
2023/08/18 12:20:36;;;;;;;16.88;12.40;;;27.60;80.70;;;;;;4904101;29;20063;-89
2023/08/18 12:23:03;;;;;;;24.23;15.07;;;27.60;79.60;;;;;;4894040;29;20037;-87
2023/08/18 12:25:30;;;;;;;19.63;13.15;;;27.60;79.90;;;;;;4903830;29;20040;-87
2023/08/18 12:27:56;;;;;;;21.77;15.50;;;27.60;79.40;;;;;;4901896;29;20028;-86
2023/08/18 12:30:22;;;;;;;20.05;15.02;;;27.70;80.50;;;;;;4901545;29;20029;-90
2023/08/18 12:32:49;;;;;;;22.10;14.23;;;27.60;80.60;;;;;;4902872;29;20024;-89
2023/08/18 12:35:15;;;;;;;25.08;15.57;;;27.60;80.70;;;;;;4904793;29;20040;-87